createdAt,value
2018-03-01T00:02:20.880Z,22.37
2018-03-01T00:04:48.405Z,21.30
2018-03-01T00:07:15.928Z,20.60
2018-03-01T00:09:43.428Z,22.37
2018-03-01T00:12:10.951Z,22.43
2018-03-01T00:14:38.479Z,22.97
2018-03-01T00:17:06.042Z,21.57
2018-03-01T00:19:33.541Z,21.67
2018-03-01T00:22:01.059Z,22.97
2018-03-01T00:24:28.559Z,22.20
2018-03-01T00:26:56.063Z,21.53
2018-03-01T00:29:23.593Z,22.30
2018-03-01T00:31:51.200Z,21.20
2018-03-01T00:34:18.722Z,21.97
2018-03-01T00:36:46.216Z,21.97
2018-03-01T00:39:13.737Z,21.80
2018-03-01T00:41:41.287Z,21.80
2018-03-01T00:44:08.771Z,21.27
2018-03-01T00:46:36.318Z,22.03
2018-03-01T00:49:03.906Z,22.63
2018-03-01T00:51:31.412Z,21.27
2018-03-01T00:53:58.932Z,22.20
2018-03-01T00:56:26.432Z,20.97
2018-03-01T00:58:53.949Z,24.13
2018-03-01T01:01:21.495Z,21.80
2018-03-01T01:03:49.044Z,24.60
2018-03-01T01:06:16.580Z,23.07
2018-03-01T01:08:44.091Z,21.70
2018-03-01T01:11:11.587Z,21.47
2018-03-01T01:13:39.195Z,21.90
2018-03-01T01:16:06.687Z,22.77
2018-03-01T01:18:34.203Z,22.80
2018-03-01T01:21:01.777Z,21.97
2018-03-01T01:23:29.318Z,22.43
2018-03-01T01:25:56.887Z,22.40
2018-03-01T01:28:24.403Z,22.87
2018-03-01T01:30:51.905Z,21.53
2018-03-01T01:33:19.467Z,21.33
2018-03-01T01:35:46.989Z,20.50
2018-03-01T01:38:14.484Z,20.33
2018-03-01T01:40:42.006Z,22.40
2018-03-01T01:43:09.508Z,21.43
2018-03-01T01:45:37.033Z,21.67
2018-03-01T01:48:04.536Z,20.97
2018-03-01T01:50:43.824Z,21.80
2018-03-01T01:53:11.341Z,22.07
2018-03-01T01:55:38.862Z,21.37
2018-03-01T01:58:06.392Z,22.30
2018-03-01T02:00:33.932Z,20.40
2018-03-01T02:03:01.435Z,21.97
2018-03-01T02:05:28.957Z,22.97
2018-03-01T02:07:56.452Z,24.07
2018-03-01T02:10:24.957Z,22.20
2018-03-01T02:12:52.464Z,21.73
2018-03-01T02:15:20.004Z,21.53
2018-03-01T02:17:47.506Z,21.23
2018-03-01T02:20:15.020Z,22.47
2018-03-01T02:22:42.556Z,23.30
2018-03-01T02:25:10.076Z,22.40
2018-03-01T02:27:37.569Z,22.60
2018-03-01T02:30:05.093Z,22.57
2018-03-01T02:32:32.598Z,24.13
2018-03-01T02:35:00.125Z,21.83
2018-03-01T02:37:27.683Z,21.30
2018-03-01T02:39:55.263Z,22.43
2018-03-01T02:42:22.755Z,22.37
2018-03-01T02:44:50.268Z,22.07
2018-03-01T02:47:17.827Z,22.30
2018-03-01T02:49:45.390Z,24.10
2018-03-01T02:52:12.906Z,22.43
2018-03-01T02:54:40.409Z,20.97
2018-03-01T02:57:07.951Z,22.57
2018-03-01T02:59:35.523Z,23.80
2018-03-01T03:02:03.096Z,23.33
2018-03-01T03:04:30.619Z,22.87
2018-03-01T03:06:58.212Z,22.77
2018-03-01T03:09:25.704Z,22.57
2018-03-01T03:11:53.224Z,22.10
2018-03-01T03:14:20.737Z,21.73
2018-03-01T03:16:48.259Z,22.97
2018-03-01T03:19:15.900Z,22.67
2018-03-01T03:21:43.464Z,23.63
2018-03-01T03:24:10.979Z,22.53
2018-03-01T03:26:38.588Z,23.03
2018-03-01T03:29:06.075Z,22.77
2018-03-01T03:31:33.737Z,22.80
2018-03-01T03:34:01.228Z,22.57
2018-03-01T03:36:30.763Z,23.60
2018-03-01T03:38:58.267Z,22.47
2018-03-01T03:41:27.724Z,22.93
2018-03-01T03:43:56.179Z,24.17
2018-03-01T03:46:23.699Z,23.83
2018-03-01T03:48:51.200Z,22.60
2018-03-01T03:51:18.753Z,23.23
2018-03-01T03:53:46.347Z,25.00
2018-03-01T03:56:13.853Z,23.73
2018-03-01T03:58:41.376Z,23.80
2018-03-01T04:01:09.816Z,23.13
2018-03-01T04:03:37.387Z,23.20
2018-03-01T04:06:04.959Z,23.57
2018-03-01T04:08:32.475Z,21.33
2018-03-01T04:10:59.967Z,23.23
2018-03-01T04:13:27.495Z,22.40
2018-03-01T04:15:54.999Z,21.90
2018-03-01T04:18:22.532Z,22.47
2018-03-01T04:20:50.108Z,24.00
2018-03-01T04:23:17.631Z,22.97
2018-03-01T04:25:45.139Z,21.90
2018-03-01T04:28:12.664Z,23.03
2018-03-01T04:30:40.180Z,23.57
2018-03-01T04:33:07.722Z,23.53
2018-03-01T04:35:35.223Z,22.63
2018-03-01T04:38:02.746Z,24.27
2018-03-01T04:40:30.262Z,24.13
2018-03-01T04:42:57.851Z,24.87
2018-03-01T04:45:25.345Z,24.63
2018-03-01T04:47:53.187Z,26.10
2018-03-01T04:50:20.776Z,25.07
2018-03-01T04:52:48.305Z,30.77
2018-03-01T04:55:15.799Z,27.87
2018-03-01T04:57:43.408Z,29.73
2018-03-01T05:00:10.912Z,28.87
2018-03-01T05:02:38.559Z,30.63
2018-03-01T05:05:06.095Z,31.53
2018-03-01T05:07:33.593Z,30.63
2018-03-01T05:10:01.164Z,28.97
2018-03-01T05:12:28.663Z,28.67
2018-03-01T05:14:56.300Z,27.63
2018-03-01T05:17:23.792Z,29.63
2018-03-01T05:19:51.319Z,31.67
2018-03-01T05:22:18.923Z,31.97
2018-03-01T05:24:46.447Z,29.40
2018-03-01T05:27:13.996Z,30.47
2018-03-01T05:29:41.522Z,28.53
2018-03-01T05:32:09.043Z,28.50
2018-03-01T05:34:36.561Z,30.93
2018-03-01T05:37:04.061Z,28.60
2018-03-01T05:39:31.605Z,29.57
2018-03-01T05:41:59.112Z,29.40
2018-03-01T05:44:26.656Z,28.00
2018-03-01T05:46:54.172Z,28.50
2018-03-01T05:49:21.732Z,28.57
2018-03-01T05:51:49.228Z,29.37
2018-03-01T05:54:16.761Z,28.77
2018-03-01T05:56:44.269Z,28.80
2018-03-01T05:59:12.707Z,29.40
2018-03-01T06:01:40.225Z,29.07
2018-03-01T06:04:07.760Z,29.53
2018-03-01T06:06:35.392Z,28.40
2018-03-01T06:09:04.783Z,27.80
2018-03-01T06:11:32.531Z,28.33
2018-03-01T06:14:01.528Z,30.37
2018-03-01T06:16:32.197Z,30.60
2018-03-01T06:19:00.896Z,27.67
2018-03-01T06:21:30.235Z,29.00
2018-03-01T06:24:05.000Z,28.90
2018-03-01T06:26:32.520Z,29.10
2018-03-01T06:29:00.083Z,29.17
2018-03-01T06:31:27.583Z,30.73
2018-03-01T06:33:55.153Z,30.20
2018-03-01T06:36:22.649Z,28.43
2018-03-01T06:38:50.154Z,27.93
2018-03-01T06:41:17.679Z,28.53
2018-03-01T06:43:45.279Z,30.87
2018-03-01T06:46:12.832Z,28.30
2018-03-01T06:48:40.333Z,28.53
2018-03-01T06:51:07.863Z,29.23
2018-03-01T06:53:35.367Z,29.77
2018-03-01T06:56:02.879Z,29.73
2018-03-01T06:58:30.397Z,27.77
2018-03-01T07:00:57.919Z,29.73
2018-03-01T07:03:25.423Z,29.17
2018-03-01T07:05:52.999Z,30.33
2018-03-01T07:08:20.518Z,28.43
2018-03-01T07:10:48.063Z,29.03
2018-03-01T07:13:15.584Z,28.07
2018-03-01T07:15:43.136Z,30.77
2018-03-01T07:18:10.698Z,29.40
2018-03-01T07:20:38.224Z,28.73
2018-03-01T07:23:05.728Z,29.30
2018-03-01T07:25:33.272Z,31.43
2018-03-01T07:28:00.795Z,29.83
2018-03-01T07:30:28.311Z,30.53
2018-03-01T07:32:55.920Z,29.27
2018-03-01T07:35:23.403Z,30.13
2018-03-01T07:37:50.964Z,30.67
2018-03-01T07:40:18.556Z,29.03
2018-03-01T07:42:46.059Z,28.07
2018-03-01T07:45:13.615Z,33.03
2018-03-01T07:47:41.124Z,30.93
2018-03-01T07:50:08.772Z,25.53
2018-03-01T07:52:36.276Z,27.90
2018-03-01T07:55:03.893Z,24.97
2018-03-01T07:57:31.392Z,28.40
2018-03-01T07:59:59.916Z,29.27
2018-03-01T08:02:33.010Z,28.33
2018-03-01T08:05:01.475Z,27.57
2018-03-01T08:07:29.052Z,28.97
2018-03-01T08:09:56.543Z,28.50
2018-03-01T08:12:24.069Z,28.10
2018-03-01T08:14:51.570Z,26.57
2018-03-01T08:17:20.129Z,29.37
2018-03-01T08:19:47.624Z,25.93
2018-03-01T08:22:15.145Z,26.33
2018-03-01T08:24:42.643Z,25.70
2018-03-01T08:27:10.208Z,27.23
2018-03-01T08:29:37.811Z,26.83
2018-03-01T08:32:05.352Z,28.67
2018-03-01T08:34:32.877Z,28.33
2018-03-01T08:37:00.401Z,29.27
2018-03-01T08:39:27.891Z,28.93
2018-03-01T08:41:55.517Z,29.07
2018-03-01T08:44:23.097Z,28.33
2018-03-01T08:46:50.651Z,29.63
2018-03-01T08:49:18.155Z,29.83
2018-03-01T08:51:45.675Z,27.23
2018-03-01T08:54:13.183Z,27.13
2018-03-01T08:56:40.781Z,26.83
2018-03-01T08:59:08.279Z,27.50
2018-03-01T09:01:35.788Z,25.47
2018-03-01T09:04:03.296Z,25.33
2018-03-01T09:06:30.836Z,25.73
2018-03-01T09:08:58.348Z,25.63
2018-03-01T09:11:25.840Z,25.53
2018-03-01T09:13:53.416Z,25.80
2018-03-01T09:16:20.900Z,26.90
2018-03-01T09:18:48.415Z,23.23
2018-03-01T09:21:16.059Z,25.73
2018-03-01T09:23:43.615Z,26.90
2018-03-01T09:26:11.107Z,27.67
2018-03-01T09:28:38.732Z,26.17
2018-03-01T09:31:06.296Z,26.10
2018-03-01T09:33:33.817Z,25.67
2018-03-01T09:36:01.322Z,26.07
2018-03-01T09:38:28.836Z,24.40
2018-03-01T09:40:56.327Z,25.67
2018-03-01T09:43:23.865Z,24.13
2018-03-01T09:45:51.360Z,24.67
2018-03-01T09:48:19.520Z,26.50
2018-03-01T09:50:47.045Z,25.50
2018-03-01T09:53:14.578Z,26.07
2018-03-01T09:55:42.104Z,26.27
2018-03-01T09:58:09.619Z,23.77
2018-03-01T10:00:37.115Z,25.30
2018-03-01T10:03:04.674Z,26.90
2018-03-01T10:05:32.184Z,26.27
2018-03-01T10:07:59.709Z,24.53
2018-03-01T10:10:27.257Z,25.63
2018-03-01T10:12:54.806Z,26.00
2018-03-01T10:15:22.299Z,24.07
2018-03-01T10:17:49.818Z,25.47
2018-03-01T10:20:17.339Z,24.40
2018-03-01T10:22:44.823Z,25.43
2018-03-01T10:27:45.171Z,24.83
2018-03-01T10:30:12.691Z,24.80
2018-03-01T10:32:40.207Z,25.67
2018-03-01T10:35:07.732Z,26.10
2018-03-01T10:37:35.316Z,26.37
2018-03-01T10:40:02.882Z,26.87
2018-03-01T10:42:30.388Z,26.40
2018-03-01T10:44:57.915Z,26.90
2018-03-01T10:47:25.446Z,26.70
2018-03-01T10:49:52.964Z,24.70
2018-03-01T10:52:20.483Z,26.80
2018-03-01T10:54:48.008Z,27.13
2018-03-01T10:57:15.507Z,30.30
2018-03-01T10:59:43.056Z,25.87
2018-03-01T11:02:10.548Z,29.10
2018-03-01T11:04:38.071Z,26.03
2018-03-01T11:07:05.588Z,29.27
2018-03-01T11:09:33.108Z,26.83
2018-03-01T11:12:00.627Z,27.70
2018-03-01T11:14:28.155Z,26.87
2018-03-01T11:16:55.673Z,29.00
2018-03-01T11:19:23.186Z,27.87
2018-03-01T11:21:50.676Z,28.43
2018-03-01T11:24:18.177Z,28.70
2018-03-01T11:26:45.715Z,30.97
2018-03-01T11:29:13.250Z,27.63
2018-03-01T11:31:40.748Z,28.13
2018-03-01T11:34:08.291Z,27.03
2018-03-01T11:36:35.814Z,30.40
2018-03-01T11:39:03.314Z,27.73
2018-03-01T11:41:30.853Z,27.80
2018-03-01T11:43:58.355Z,26.43
2018-03-01T11:46:25.878Z,27.70
2018-03-01T11:48:53.376Z,27.93
2018-03-01T11:51:20.893Z,27.17
2018-03-01T11:53:48.384Z,27.93
2018-03-01T11:56:15.928Z,28.07
2018-03-01T11:58:43.436Z,25.03
2018-03-01T12:01:10.951Z,26.03
2018-03-01T12:03:38.476Z,26.37
2018-03-01T12:06:05.996Z,27.33
2018-03-01T12:08:33.494Z,27.07
2018-03-01T12:11:01.986Z,26.43
2018-03-01T12:13:29.521Z,26.27
2018-03-01T12:15:57.100Z,30.73
2018-03-01T12:18:24.960Z,27.47
2018-03-01T12:20:52.528Z,27.07
2018-03-01T12:23:20.041Z,27.67
2018-03-01T12:25:47.561Z,28.67
2018-03-01T12:28:15.073Z,26.93
2018-03-01T12:30:42.624Z,26.47
2018-03-01T12:33:10.119Z,29.20
2018-03-01T12:35:37.625Z,28.60
2018-03-01T12:38:05.137Z,28.43
2018-03-01T12:40:32.661Z,26.60
2018-03-01T12:43:00.184Z,27.97
2018-03-01T12:45:27.689Z,26.87
2018-03-01T12:47:55.304Z,27.60
2018-03-01T12:50:22.791Z,25.93
2018-03-01T12:52:50.309Z,25.90
2018-03-01T12:55:17.828Z,25.27
2018-03-01T12:57:45.348Z,26.23
2018-03-01T13:00:12.847Z,25.17
2018-03-01T13:02:40.356Z,25.83
2018-03-01T13:05:08.776Z,25.57
2018-03-01T13:07:36.313Z,26.37
2018-03-01T13:10:03.809Z,27.23
2018-03-01T13:12:31.333Z,26.50
2018-03-01T13:14:59.242Z,26.73
2018-03-01T13:17:26.714Z,28.13
2018-03-01T13:19:55.195Z,26.93
2018-03-01T13:22:22.708Z,27.17
2018-03-01T13:24:50.200Z,25.77
2018-03-01T13:27:17.721Z,26.27
2018-03-01T13:29:45.219Z,25.90
2018-03-01T13:32:13.696Z,27.27
2018-03-01T13:34:54.017Z,26.73
2018-03-01T13:37:21.536Z,26.90
2018-03-01T13:39:49.056Z,27.20
2018-03-01T13:42:20.772Z,28.57
2018-03-01T13:44:48.264Z,27.27
2018-03-01T13:47:15.788Z,28.47
2018-03-01T13:49:43.294Z,26.60
2018-03-01T13:52:10.788Z,26.53
2018-03-01T13:54:38.330Z,27.10
2018-03-01T13:57:05.828Z,26.73
2018-03-01T13:59:33.343Z,27.67
2018-03-01T14:02:00.876Z,27.63
2018-03-01T14:04:28.383Z,26.57
2018-03-01T14:06:56.684Z,27.43
2018-03-01T14:09:37.969Z,27.17
2018-03-01T14:12:05.460Z,28.37
2018-03-01T14:14:49.793Z,28.53
2018-03-01T14:17:27.204Z,28.73
2018-03-01T14:20:00.414Z,29.50
2018-03-01T14:25:30.053Z,28.67
2018-03-01T14:28:04.024Z,31.33
2018-03-01T14:30:35.101Z,29.20
2018-03-01T14:33:02.666Z,29.83
2018-03-01T14:35:30.161Z,31.17
2018-03-01T14:37:57.667Z,29.17
2018-03-01T14:40:25.229Z,30.47
2018-03-01T14:42:52.729Z,29.30
2018-03-01T14:45:20.247Z,28.90
2018-03-01T14:47:47.813Z,29.40
2018-03-01T14:50:15.368Z,30.23
2018-03-01T14:52:42.930Z,31.23
2018-03-01T14:55:10.451Z,27.37
2018-03-01T14:57:37.958Z,28.30
2018-03-01T15:00:05.576Z,29.27
2018-03-01T15:02:33.158Z,28.43
2018-03-01T15:05:01.001Z,29.40
2018-03-01T15:07:28.514Z,28.30
2018-03-01T15:09:56.044Z,30.43
2018-03-01T15:12:23.552Z,30.57
2018-03-01T15:14:51.413Z,30.50
2018-03-01T15:17:18.934Z,30.97
2018-03-01T15:19:46.476Z,29.07
2018-03-01T15:22:13.972Z,31.27
2018-03-01T15:24:41.499Z,30.07
2018-03-01T15:27:09.181Z,29.80
2018-03-01T15:29:36.707Z,28.20
2018-03-01T15:32:04.196Z,29.67
2018-03-01T15:34:31.721Z,29.03
2018-03-01T15:36:59.300Z,30.07
2018-03-01T15:39:26.836Z,29.20
2018-03-01T15:41:54.330Z,31.73
2018-03-01T15:44:21.865Z,30.43
2018-03-01T15:46:49.446Z,29.70
2018-03-01T15:49:17.005Z,30.10
2018-03-01T15:51:44.552Z,31.67
2018-03-01T15:54:12.054Z,31.03
2018-03-01T15:56:40.503Z,31.73
2018-03-01T15:59:07.996Z,30.20
2018-03-01T16:01:35.520Z,32.87
2018-03-01T16:04:03.016Z,28.83
2018-03-01T16:06:30.531Z,30.47
2018-03-01T16:08:58.319Z,29.27
2018-03-01T16:11:25.833Z,34.73
2018-03-01T16:13:53.351Z,30.60
2018-03-01T16:16:20.878Z,27.97
2018-03-01T16:18:48.368Z,29.50
2018-03-01T16:21:15.906Z,31.97
2018-03-01T16:23:43.412Z,30.23
2018-03-01T16:26:10.932Z,31.97
2018-03-01T16:28:38.443Z,31.20
2018-03-01T16:31:06.036Z,32.33
2018-03-01T16:33:33.564Z,31.83
2018-03-01T16:36:01.101Z,32.17
2018-03-01T16:38:29.003Z,30.77
2018-03-01T16:40:56.511Z,31.90
2018-03-01T16:43:24.003Z,30.83
2018-03-01T16:45:51.541Z,29.73
2018-03-01T16:48:19.057Z,33.10
2018-03-01T16:50:46.556Z,31.67
2018-03-01T16:53:15.024Z,31.10
2018-03-01T16:55:42.515Z,31.47
2018-03-01T16:58:10.033Z,31.03
2018-03-01T17:00:37.597Z,31.87
2018-03-01T17:03:05.240Z,32.50
2018-03-01T17:05:32.768Z,31.13
2018-03-01T17:08:00.284Z,32.10
2018-03-01T17:10:27.833Z,31.53
2018-03-01T17:12:55.489Z,31.73
2018-03-01T17:15:22.988Z,30.03
2018-03-01T17:17:50.519Z,31.33
2018-03-01T17:20:18.087Z,31.00
2018-03-01T17:22:45.617Z,31.40
2018-03-01T17:25:14.096Z,31.20
2018-03-01T17:27:41.628Z,32.80
2018-03-01T17:30:09.116Z,31.23
2018-03-01T17:32:36.636Z,32.57
2018-03-01T17:35:04.156Z,32.23
2018-03-01T17:37:31.717Z,34.27
2018-03-01T17:39:59.220Z,32.47
2018-03-01T17:42:26.749Z,34.17
2018-03-01T17:44:54.295Z,32.90
2018-03-01T17:47:21.841Z,31.90
2018-03-01T17:49:49.349Z,32.47
2018-03-01T17:52:16.867Z,33.93
2018-03-01T17:54:44.422Z,32.73
2018-03-01T17:57:11.922Z,32.23
2018-03-01T17:59:39.415Z,33.63
2018-03-01T18:02:07.008Z,34.23
2018-03-01T18:04:34.556Z,34.80
2018-03-01T18:07:02.060Z,33.43
2018-03-01T18:09:29.571Z,32.23
2018-03-01T18:11:57.088Z,34.60
2018-03-01T18:14:24.660Z,35.43
2018-03-01T18:16:52.185Z,34.17
2018-03-01T18:19:19.704Z,34.13
2018-03-01T18:21:47.266Z,34.93
2018-03-01T18:24:14.788Z,33.90
2018-03-01T18:26:42.284Z,33.60
2018-03-01T18:29:09.799Z,34.50
2018-03-01T18:31:37.296Z,35.43
2018-03-01T18:34:04.863Z,34.90
2018-03-01T18:36:32.424Z,34.50
2018-03-01T18:38:59.951Z,34.10
2018-03-01T18:41:27.535Z,33.47
2018-03-01T18:43:55.059Z,35.97
2018-03-01T18:46:22.566Z,34.47
2018-03-01T18:48:50.120Z,34.53
2018-03-01T18:51:17.636Z,34.73
2018-03-01T18:53:45.159Z,34.23
2018-03-01T18:56:12.698Z,36.83
2018-03-01T18:58:41.156Z,32.23
2018-03-01T19:01:08.675Z,35.27
2018-03-01T19:03:36.163Z,34.17
2018-03-01T19:06:03.740Z,31.17
2018-03-01T19:08:31.315Z,33.97
2018-03-01T19:10:58.832Z,33.37
2018-03-01T19:13:26.517Z,31.57
2018-03-01T19:15:54.059Z,32.97
2018-03-01T19:18:21.660Z,30.70
2018-03-01T19:20:49.220Z,33.00
2018-03-01T19:23:16.781Z,32.60
2018-03-01T19:25:44.335Z,32.97
2018-03-01T19:28:11.895Z,31.70
2018-03-01T19:30:39.433Z,32.17
2018-03-01T19:33:06.932Z,32.37
2018-03-01T19:35:34.576Z,35.83
2018-03-01T19:38:02.069Z,36.40
2018-03-01T19:40:29.800Z,34.23
2018-03-01T19:42:57.311Z,33.00
2018-03-01T19:45:24.918Z,32.30
2018-03-01T19:47:52.420Z,33.33
2018-03-01T19:50:20.052Z,31.60
2018-03-01T19:52:47.570Z,32.43
2018-03-01T19:55:15.132Z,34.53
2018-03-01T19:57:42.624Z,32.43
2018-03-01T20:00:10.144Z,33.73
2018-03-01T20:02:37.640Z,29.90
2018-03-01T20:05:05.192Z,31.10
2018-03-01T20:07:32.765Z,31.43
2018-03-01T20:10:00.330Z,30.27
2018-03-01T20:12:27.855Z,31.30
2018-03-01T20:14:55.428Z,31.33
2018-03-01T20:17:22.952Z,30.00
2018-03-01T20:19:50.448Z,31.07
2018-03-01T20:22:17.975Z,30.70
2018-03-01T20:24:45.477Z,31.87
2018-03-01T20:27:12.992Z,30.63
2018-03-01T20:29:40.494Z,31.67
2018-03-01T20:32:08.012Z,30.90
2018-03-01T20:34:35.521Z,30.77
2018-03-01T20:37:03.181Z,30.27
2018-03-01T20:39:30.794Z,30.40
2018-03-01T20:41:58.376Z,30.83
2018-03-01T20:44:25.854Z,32.03
2018-03-01T20:46:53.399Z,39.80
2018-03-01T20:49:20.920Z,31.33
2018-03-01T20:51:48.457Z,29.27
2018-03-01T20:54:15.991Z,28.87
2018-03-01T20:56:43.508Z,33.50
2018-03-01T20:59:10.999Z,30.63
2018-03-01T21:01:38.570Z,29.47
2018-03-01T21:04:06.125Z,29.80
2018-03-01T21:06:33.636Z,30.67
2018-03-01T21:09:01.133Z,31.13
2018-03-01T21:11:28.653Z,31.50
2018-03-01T21:13:56.158Z,32.20
2018-03-01T21:16:23.714Z,31.57
2018-03-01T21:18:51.260Z,31.17
2018-03-01T21:21:18.900Z,30.40
2018-03-01T21:23:46.418Z,29.73
2018-03-01T21:26:13.920Z,27.50
2018-03-01T21:28:41.523Z,29.60
2018-03-01T21:31:09.068Z,30.67
2018-03-01T21:33:36.581Z,27.73
2018-03-01T21:36:04.085Z,29.70
2018-03-01T21:38:32.556Z,29.00
2018-03-01T21:41:00.080Z,29.50
2018-03-01T21:43:27.604Z,28.83
2018-03-01T21:45:55.129Z,32.07
2018-03-01T21:48:22.644Z,27.93
2018-03-01T21:50:50.156Z,28.43
2018-03-01T21:53:17.691Z,28.53
2018-03-01T21:55:45.205Z,29.30
2018-03-01T21:58:12.758Z,35.83
2018-03-01T22:00:40.268Z,30.83
2018-03-01T22:03:07.801Z,29.10
2018-03-01T22:05:35.324Z,30.23
2018-03-01T22:08:02.840Z,32.07
2018-03-01T22:10:30.436Z,30.13
2018-03-01T22:12:58.003Z,29.80
2018-03-01T22:15:25.535Z,31.63
2018-03-01T22:17:53.053Z,30.87
2018-03-01T22:20:20.572Z,30.43
2018-03-01T22:22:48.127Z,29.57
2018-03-01T22:25:15.623Z,32.50
2018-03-01T22:27:43.243Z,31.40
2018-03-01T22:30:10.759Z,32.43
2018-03-01T22:32:38.251Z,30.37
2018-03-01T22:35:05.821Z,31.07
2018-03-01T22:37:33.606Z,31.00
2018-03-01T22:40:01.164Z,29.70
2018-03-01T22:42:28.700Z,29.67
2018-03-01T22:44:56.388Z,31.80
2018-03-01T22:47:23.895Z,29.40
2018-03-01T22:49:51.491Z,30.60
2018-03-01T22:52:19.021Z,30.37
2018-03-01T22:54:46.542Z,28.93
2018-03-01T22:57:14.044Z,29.33
2018-03-01T22:59:41.636Z,28.30
2018-03-01T23:02:09.255Z,28.30
2018-03-01T23:04:36.851Z,28.90
2018-03-01T23:07:04.431Z,28.40
2018-03-01T23:09:31.960Z,29.43
2018-03-01T23:11:59.460Z,28.77
2018-03-01T23:14:27.056Z,29.70
2018-03-01T23:16:54.655Z,28.00
2018-03-01T23:19:22.293Z,28.27
2018-03-01T23:21:49.795Z,30.17
2018-03-01T23:24:17.320Z,28.83
2018-03-01T23:26:44.817Z,27.83
2018-03-01T23:29:12.339Z,29.80
2018-03-01T23:31:39.836Z,31.13
2018-03-01T23:34:07.380Z,28.77
2018-03-01T23:36:34.883Z,31.33
2018-03-01T23:39:02.379Z,30.03
2018-03-01T23:41:29.900Z,28.97
2018-03-01T23:43:57.396Z,29.70
2018-03-01T23:46:24.948Z,30.03
2018-03-01T23:48:52.520Z,30.30
2018-03-01T23:51:20.080Z,28.13
2018-03-01T23:53:47.605Z,28.33
2018-03-01T23:56:15.196Z,28.20
2018-03-01T23:58:42.690Z,27.30
